Faisalabad Weather



Faisalabad's Current Weather

Temprature 22.6o clear sky

clear sky

Rain: 0 %

Min Temprature22.6o
Max Temprature22.6o
Humidity81
Wind Speed2.67 m/h
Sun Rise05:58:00
Sun Set18:00:13
Current Time: 26-Sep-2022 07:36:16
Lat/Lon: 31.4167, 73.0833




Faisalabad's Geo Location



Faisalabad's Weather Forecast

Time Overall Temp Min Temp Max Temp Humidity Wind Speed Rain
26-Sep-2022 (Mon)
08:00:00 light rain 24.790 24.790 24.790 72 2.57 m/h 49 %
11:00:00 clear sky 26.900 26.900 31.130 63 2.46 m/h 0 %
14:00:00 clear sky 31.220 31.220 34.430 48 2.33 m/h 0 %
17:00:00 clear sky 34.080 34.080 34.080 35 1.71 m/h 0 %
20:00:00 clear sky 29.540 29.540 29.540 48 3.06 m/h 0 %
23:00:00 clear sky 27.740 27.740 27.740 55 2.59 m/h 0 %
27-Sep-2022 (Tue)
02:00:00 clear sky 26.410 26.410 26.410 63 2.63 m/h 0 %
05:00:00 clear sky 25.710 25.710 25.710 66 2.5 m/h 0 %
08:00:00 clear sky 28.830 28.830 28.830 55 2.44 m/h 0 %
11:00:00 clear sky 34.310 34.310 34.310 37 2.03 m/h 0 %
14:00:00 clear sky 36.950 36.950 36.950 27 1.01 m/h 0 %
17:00:00 clear sky 36.130 36.130 36.130 27 2.08 m/h 0 %
20:00:00 clear sky 30.730 30.730 30.730 42 3.78 m/h 0 %
23:00:00 clear sky 28.630 28.630 28.630 51 3.08 m/h 0 %
28-Sep-2022 (Wed)
02:00:00 clear sky 27.040 27.040 27.040 57 3.67 m/h 0 %
05:00:00 clear sky 25.870 25.870 25.870 57 2.93 m/h 0 %
08:00:00 clear sky 29.520 29.520 29.520 41 2.46 m/h 0 %
11:00:00 clear sky 35.630 35.630 35.630 25 2 m/h 0 %
14:00:00 clear sky 38.130 38.130 38.130 20 1.91 m/h 0 %
17:00:00 clear sky 37.060 37.060 37.060 20 1.43 m/h 0 %
20:00:00 clear sky 31.440 31.440 31.440 30 2.07 m/h 0 %
23:00:00 clear sky 28.970 28.970 28.970 39 2.36 m/h 0 %
29-Sep-2022 (Thu)
02:00:00 clear sky 27.600 27.600 27.600 42 2.05 m/h 0 %
05:00:00 clear sky 26.660 26.660 26.660 43 2.22 m/h 0 %
08:00:00 clear sky 29.810 29.810 29.810 31 2.7 m/h 0 %
11:00:00 clear sky 36.200 36.200 36.200 20 3.21 m/h 0 %
14:00:00 clear sky 38.290 38.290 38.290 18 2.88 m/h 0 %
17:00:00 clear sky 37.070 37.070 37.070 20 1.41 m/h 0 %
20:00:00 few clouds 31.610 31.610 31.610 27 0.67 m/h 0 %
23:00:00 clear sky 29.160 29.160 29.160 31 1.58 m/h 0 %
30-Sep-2022 (Fri)
02:00:00 clear sky 28.100 28.100 28.100 34 2.29 m/h 0 %
05:00:00 clear sky 27.370 27.370 27.370 36 2.12 m/h 0 %
08:00:00 clear sky 30.660 30.660 30.660 28 2.57 m/h 0 %
11:00:00 clear sky 36.100 36.100 36.100 19 3.07 m/h 0 %
14:00:00 clear sky 38.280 38.280 38.280 17 2.17 m/h 0 %
17:00:00 clear sky 36.990 36.990 36.990 18 0.74 m/h 0 %
20:00:00 clear sky 31.250 31.250 31.250 24 2.02 m/h 0 %
23:00:00 clear sky 28.750 28.750 28.750 29 1.38 m/h 0 %
01-Oct-2022 (Sat)
02:00:00 clear sky 27.620 27.620 27.620 33 0.67 m/h 0 %
05:00:00 clear sky 26.480 26.480 26.480 37 1.77 m/h 0 %


Faisalabad's Tourist Spots

Parks and Zoos in Faisalabad

Famous Cities (61)